sensor_id;sensor_type;location;lat;lon;timestamp;pressure;altitude;pressure_sealevel;temperature;humidity
19890;BME280;10107;51.198;6.824;2023-04-06T00:01:32;-21376.59;;;2.11;85.54
19890;BME280;10107;51.198;6.824;2023-04-06T00:05:34;-21374.59;;;2.04;85.87
19890;BME280;10107;51.198;6.824;2023-04-06T00:09:35;-21373.38;;;1.99;86.53
19890;BME280;10107;51.198;6.824;2023-04-06T00:13:37;-21371.63;;;1.92;86.90
19890;BME280;10107;51.198;6.824;2023-04-06T00:17:40;-21369.88;;;1.86;87.11
19890;BME280;10107;51.198;6.824;2023-04-06T00:21:42;-21369.75;;;1.85;88.04
19890;BME280;10107;51.198;6.824;2023-04-06T00:25:44;-21369.88;;;1.86;88.07
19890;BME280;10107;51.198;6.824;2023-04-06T00:29:45;-21369.75;;;1.85;87.77
19890;BME280;10107;51.198;6.824;2023-04-06T00:33:49;-21369.88;;;1.86;87.98
19890;BME280;10107;51.198;6.824;2023-04-06T00:37:50;-21372.03;;;1.94;88.05
19890;BME280;10107;51.198;6.824;2023-04-06T00:41:53;-21374.19;;;2.02;87.27
19890;BME280;10107;51.198;6.824;2023-04-06T00:45:56;-21373.91;;;2.01;86.45
19890;BME280;10107;51.198;6.824;2023-04-06T00:49:59;-21373.09;;;1.98;86.44
19890;BME280;10107;51.198;6.824;2023-04-06T00:54:01;-21371.50;;;1.92;85.30
19890;BME280;10107;51.198;6.824;2023-04-06T00:58:05;-21369.47;;;1.84;85.82
19890;BME280;10107;51.198;6.824;2023-04-06T01:02:16;-21368.94;;;1.82;86.74
19890;BME280;10107;51.198;6.824;2023-04-06T01:06:24;-21369.34;;;1.84;86.75
19890;BME280;10107;51.198;6.824;2023-04-06T01:10:33;-21369.09;;;1.83;85.76
19890;BME280;10107;51.198;6.824;2023-04-06T01:14:44;-21368.28;;;1.80;86.24
19890;BME280;10107;51.198;6.824;2023-04-06T01:18:46;-21367.22;;;1.75;86.77
19890;BME280;10107;51.198;6.824;2023-04-06T01:22:53;-21367.59;;;1.77;86.68
19890;BME280;10107;51.198;6.824;2023-04-06T01:26:55;-21367.47;;;1.76;85.88
19890;BME280;10107;51.198;6.824;2023-04-06T01:30:59;-21367.59;;;1.77;85.42
19890;BME280;10107;51.198;6.824;2023-04-06T01:35:21;-21365.72;;;1.70;86.18
19890;BME280;10107;51.198;6.824;2023-04-06T01:39:51;-21364.78;;;1.66;86.62
19890;BME280;10107;51.198;6.824;2023-04-06T01:44:01;-21363.44;;;1.61;87.22
19890;BME280;10107;51.198;6.824;2023-04-06T01:48:05;-21361.28;;;1.53;87.28
19890;BME280;10107;51.198;6.824;2023-04-06T01:52:07;-21358.63;;;1.43;87.77
19890;BME280;10107;51.198;6.824;2023-04-06T01:56:13;-21357.41;;;1.38;88.67
19890;BME280;10107;51.198;6.824;2023-04-06T02:00:21;-21356.47;;;1.34;89.01
19890;BME280;10107;51.198;6.824;2023-04-06T02:04:27;-21355.13;;;1.29;89.58
19890;BME280;10107;51.198;6.824;2023-04-06T02:08:41;-21353.38;;;1.23;90.02
19890;BME280;10107;51.198;6.824;2023-04-06T02:12:44;-21351.75;;;1.16;90.11
19890;BME280;10107;51.198;6.824;2023-04-06T02:16:53;-21350.81;;;1.13;90.77
19890;BME280;10107;51.198;6.824;2023-04-06T02:20:56;-21349.47;;;1.08;90.86
19890;BME280;10107;51.198;6.824;2023-04-06T02:24:58;-21347.88;;;1.02;91.44
19890;BME280;10107;51.198;6.824;2023-04-06T02:29:01;-21347.72;;;1.01;92.11
19890;BME280;10107;51.198;6.824;2023-04-06T02:33:03;-21348.41;;;1.04;92.97
19890;BME280;10107;51.198;6.824;2023-04-06T02:37:13;-21350.00;;;1.10;92.13
19890;BME280;10107;51.198;6.824;2023-04-06T02:41:15;-21349.88;;;1.09;91.84
19890;BME280;10107;51.198;6.824;2023-04-06T02:45:19;-21348.69;;;1.05;91.69
19890;BME280;10107;51.198;6.824;2023-04-06T02:49:22;-21346.38;;;0.96;91.99
19890;BME280;10107;51.198;6.824;2023-04-06T02:53:28;-21344.66;;;0.89;92.42
19890;BME280;10107;51.198;6.824;2023-04-06T02:57:30;-21343.31;;;0.84;92.85
19890;BME280;10107;51.198;6.824;2023-04-06T03:01:33;-21341.56;;;0.77;93.43
19890;BME280;10107;51.198;6.824;2023-04-06T03:05:38;-21340.63;;;0.74;93.87
19890;BME280;10107;51.198;6.824;2023-04-06T03:09:40;-21339.00;;;0.68;94.02
19890;BME280;10107;51.198;6.824;2023-04-06T03:13:42;-21337.78;;;0.63;94.56
19890;BME280;10107;51.198;6.824;2023-04-06T03:17:46;-21339.53;;;0.70;95.46
19890;BME280;10107;51.198;6.824;2023-04-06T03:22:05;-21342.63;;;0.82;94.88
19890;BME280;10107;51.198;6.824;2023-04-06T03:26:07;-21343.56;;;0.85;94.45
19890;BME280;10107;51.198;6.824;2023-04-06T03:30:09;-21342.91;;;0.83;94.29
19890;BME280;10107;51.198;6.824;2023-04-06T03:34:12;-21341.16;;;0.76;94.35
19890;BME280;10107;51.198;6.824;2023-04-06T03:38:14;-21339.25;;;0.69;94.69
19890;BME280;10107;51.198;6.824;2023-04-06T03:42:16;-21339.25;;;0.69;95.67
19890;BME280;10107;51.198;6.824;2023-04-06T03:46:26;-21338.06;;;0.64;95.28
19890;BME280;10107;51.198;6.824;2023-04-06T03:50:32;-21336.31;;;0.57;95.64
19890;BME280;10107;51.198;6.824;2023-04-06T03:54:34;-21335.63;;;0.55;95.96
19890;BME280;10107;51.198;6.824;2023-04-06T03:58:36;-21334.84;;;0.52;96.16
19890;BME280;10107;51.198;6.824;2023-04-06T04:02:38;-21333.91;;;0.48;96.11
19890;BME280;10107;51.198;6.824;2023-04-06T04:06:42;-21333.34;;;0.46;96.33
19890;BME280;10107;51.198;6.824;2023-04-06T04:10:44;-21332.41;;;0.43;96.34
19890;BME280;10107;51.198;6.824;2023-04-06T04:14:47;-21332.28;;;0.42;96.45
19890;BME280;10107;51.198;6.824;2023-04-06T04:18:49;-21334.56;;;0.51;96.64
19890;BME280;10107;51.198;6.824;2023-04-06T04:22:52;-21336.31;;;0.57;95.97
19890;BME280;10107;51.198;6.824;2023-04-06T04:26:53;-21334.97;;;0.52;95.94
19890;BME280;10107;51.198;6.824;2023-04-06T04:30:56;-21334.03;;;0.49;96.26
19890;BME280;10107;51.198;6.824;2023-04-06T04:34:58;-21332.53;;;0.43;96.07
19890;BME280;10107;51.198;6.824;2023-04-06T04:39:10;-21330.66;;;0.36;96.17
19890;BME280;10107;51.198;6.824;2023-04-06T04:43:17;-21330.13;;;0.34;96.56
19890;BME280;10107;51.198;6.824;2023-04-06T04:47:19;-21328.91;;;0.29;96.57
19890;BME280;10107;51.198;6.824;2023-04-06T04:51:22;-21328.91;;;0.29;96.88
19890;BME280;10107;51.198;6.824;2023-04-06T04:55:40;-21328.78;;;0.29;96.64
19890;BME280;10107;51.198;6.824;2023-04-06T04:59:42;-21329.59;;;0.32;96.63
19890;BME280;10107;51.198;6.824;2023-04-06T05:03:51;-21330.66;;;0.36;96.40
19890;BME280;10107;51.198;6.824;2023-04-06T05:07:52;-21331.22;;;0.38;96.15
19890;BME280;10107;51.198;6.824;2023-04-06T05:12:07;-21332.16;;;0.42;95.84
19890;BME280;10107;51.198;6.824;2023-04-06T05:16:16;-21334.16;;;0.49;95.31
19890;BME280;10107;51.198;6.824;2023-04-06T05:20:18;-21336.44;;;0.58;94.68
19890;BME280;10107;51.198;6.824;2023-04-06T05:24:23;-21338.72;;;0.67;94.47
19890;BME280;10107;51.198;6.824;2023-04-06T05:28:27;-21341.97;;;0.79;94.32
19890;BME280;10107;51.198;6.824;2023-04-06T05:32:29;-21344.91;;;0.90;93.72
19890;BME280;10107;51.198;6.824;2023-04-06T05:36:31;-21348.13;;;1.03;93.13
19890;BME280;10107;51.198;6.824;2023-04-06T05:40:37;-21351.91;;;1.17;92.46
19890;BME280;10107;51.198;6.824;2023-04-06T05:44:44;-21357.00;;;1.36;90.68
19890;BME280;10107;51.198;6.824;2023-04-06T05:48:49;-21364.25;;;1.64;88.79
19890;BME280;10107;51.198;6.824;2023-04-06T05:52:54;-21371.91;;;1.93;86.68
19890;BME280;10107;51.198;6.824;2023-04-06T05:56:58;-21379.16;;;2.21;83.94
19890;BME280;10107;51.198;6.824;2023-04-06T06:01:02;-21384.91;;;2.43;80.65
19890;BME280;10107;51.198;6.824;2023-04-06T06:05:15;-21390.81;;;2.66;78.58
19890;BME280;10107;51.198;6.824;2023-04-06T06:09:17;-21396.03;;;2.86;75.82
19890;BME280;10107;51.198;6.824;2023-04-06T06:13:30;-21401.00;;;3.05;74.88
19890;BME280;10107;51.198;6.824;2023-04-06T06:17:34;-21407.03;;;3.28;72.71
19890;BME280;10107;51.198;6.824;2023-04-06T06:21:36;-21412.25;;;3.48;72.09
19890;BME280;10107;51.198;6.824;2023-04-06T06:25:39;-21418.00;;;3.70;70.49
19890;BME280;10107;51.198;6.824;2023-04-06T06:29:41;-21425.88;;;4.00;68.04
19890;BME280;10107;51.198;6.824;2023-04-06T06:33:46;-21431.63;;;4.22;65.95
19890;BME280;10107;51.198;6.824;2023-04-06T06:37:50;-21441.13;;;4.59;64.38
19890;BME280;10107;51.198;6.824;2023-04-06T06:41:56;-21451.03;;;4.96;61.77
19890;BME280;10107;51.198;6.824;2023-04-06T06:46:18;-21535.53;;;8.22;53.43
19890;BME280;10107;51.198;6.824;2023-04-06T06:50:21;-21665.84;;;13.26;38.91
19890;BME280;10107;51.198;6.824;2023-04-06T06:54:23;-21737.69;;;16.07;32.99
19890;BME280;10107;51.198;6.824;2023-04-06T06:58:25;-21807.09;;;18.78;27.35
19890;BME280;10107;51.198;6.824;2023-04-06T07:02:27;-21821.72;;;19.36;25.87
19890;BME280;10107;51.198;6.824;2023-04-06T07:06:30;-21849.88;;;20.47;24.58
19890;BME280;10107;51.198;6.824;2023-04-06T07:10:32;-21913.56;;;22.98;22.17
19890;BME280;10107;51.198;6.824;2023-04-06T07:14:34;-21956.94;;;24.70;20.49
19890;BME280;10107;51.198;6.824;2023-04-06T07:18:37;-21965.34;;;25.03;19.14
19890;BME280;10107;51.198;6.824;2023-04-06T07:22:41;-22002.50;;;26.51;18.19
19890;BME280;10107;51.198;6.824;2023-04-06T07:26:43;-22044.66;;;28.19;17.06
19890;BME280;10107;51.198;6.824;2023-04-06T07:30:45;-21989.09;;;25.98;17.74
19890;BME280;10107;51.198;6.824;2023-04-06T07:34:47;-21829.94;;;19.68;23.84
19890;BME280;10107;51.198;6.824;2023-04-06T07:38:50;-21945.06;;;24.23;20.02
19890;BME280;10107;51.198;6.824;2023-04-06T07:42:52;-22028.09;;;27.53;17.36
19890;BME280;10107;51.198;6.824;2023-04-06T07:46:54;-21992.06;;;26.10;17.65
19890;BME280;10107;51.198;6.824;2023-04-06T07:51:01;-22010.59;;;26.83;17.22
19890;BME280;10107;51.198;6.824;2023-04-06T07:55:05;-21989.22;;;25.98;17.84
19890;BME280;10107;51.198;6.824;2023-04-06T07:59:07;-21987.53;;;25.92;17.45
19890;BME280;10107;51.198;6.824;2023-04-06T08:03:08;-21907.22;;;22.73;20.80
19890;BME280;10107;51.198;6.824;2023-04-06T08:07:10;-21920.59;;;23.26;20.06
19890;BME280;10107;51.198;6.824;2023-04-06T08:11:14;-21941.03;;;24.07;19.28
19890;BME280;10107;51.198;6.824;2023-04-06T08:15:16;-21888.78;;;22.00;21.34
19890;BME280;10107;51.198;6.824;2023-04-06T08:19:18;-21816.25;;;19.14;23.97
19890;BME280;10107;51.198;6.824;2023-04-06T08:23:20;-21789.56;;;18.10;25.80
19890;BME280;10107;51.198;6.824;2023-04-06T08:27:23;-21777.81;;;17.64;27.14
19890;BME280;10107;51.198;6.824;2023-04-06T08:31:25;-21765.75;;;17.16;27.90
19890;BME280;10107;51.198;6.824;2023-04-06T08:35:27;-21784.47;;;17.90;27.85
19890;BME280;10107;51.198;6.824;2023-04-06T08:39:28;-21792.19;;;18.20;27.09
19890;BME280;10107;51.198;6.824;2023-04-06T08:43:33;-21797.81;;;18.42;26.83
19890;BME280;10107;51.198;6.824;2023-04-06T08:47:37;-21817.53;;;19.19;25.57
19890;BME280;10107;51.198;6.824;2023-04-06T08:51:39;-21869.94;;;21.26;24.15
19890;BME280;10107;51.198;6.824;2023-04-06T08:55:42;-21873.19;;;21.39;23.31
19890;BME280;10107;51.198;6.824;2023-04-06T08:59:46;-21863.44;;;21.00;23.59
19890;BME280;10107;51.198;6.824;2023-04-06T09:03:49;-21837.50;;;19.98;24.90
19890;BME280;10107;51.198;6.824;2023-04-06T09:07:52;-21810.63;;;18.92;26.38
19890;BME280;10107;51.198;6.824;2023-04-06T09:11:55;-21789.56;;;18.10;27.34
19890;BME280;10107;51.198;6.824;2023-04-06T09:16:05;-21799.78;;;18.50;26.77
19890;BME280;10107;51.198;6.824;2023-04-06T09:20:07;-21787.75;;;18.03;27.22
19890;BME280;10107;51.198;6.824;2023-04-06T09:24:09;-21783.94;;;17.88;27.69
19890;BME280;10107;51.198;6.824;2023-04-06T09:28:11;-21777.28;;;17.61;29.17
19890;BME280;10107;51.198;6.824;2023-04-06T09:32:14;-21777.41;;;17.62;28.93
19890;BME280;10107;51.198;6.824;2023-04-06T09:36:17;-21774.13;;;17.49;28.62
19890;BME280;10107;51.198;6.824;2023-04-06T09:40:19;-21778.84;;;17.68;27.90
19890;BME280;10107;51.198;6.824;2023-04-06T09:44:22;-21774.00;;;17.49;28.96
19890;BME280;10107;51.198;6.824;2023-04-06T09:48:28;-21778.59;;;17.67;28.88
19890;BME280;10107;51.198;6.824;2023-04-06T09:52:33;-21791.69;;;18.18;27.57
19890;BME280;10107;51.198;6.824;2023-04-06T09:56:42;-21805.78;;;18.73;27.28
19890;BME280;10107;51.198;6.824;2023-04-06T10:00:48;-21828.91;;;19.64;25.82
19890;BME280;10107;51.198;6.824;2023-04-06T10:04:57;-21835.69;;;19.91;25.89
19890;BME280;10107;51.198;6.824;2023-04-06T10:09:02;-21843.25;;;20.21;25.67
19890;BME280;10107;51.198;6.824;2023-04-06T10:13:05;-21833.59;;;19.83;25.94
19890;BME280;10107;51.198;6.824;2023-04-06T10:17:07;-21814.53;;;19.08;26.29
19890;BME280;10107;51.198;6.824;2023-04-06T10:21:13;-21799.25;;;18.48;28.13
19890;BME280;10107;51.198;6.824;2023-04-06T10:25:16;-21795.72;;;18.34;28.22
19890;BME280;10107;51.198;6.824;2023-04-06T10:29:18;-21786.97;;;17.99;28.49
19890;BME280;10107;51.198;6.824;2023-04-06T10:33:21;-21774.00;;;17.49;29.67
19890;BME280;10107;51.198;6.824;2023-04-06T10:37:24;-21779.50;;;17.70;29.88
19890;BME280;10107;51.198;6.824;2023-04-06T10:41:32;-21771.66;;;17.39;30.23
19890;BME280;10107;51.198;6.824;2023-04-06T10:45:35;-21779.38;;;17.70;31.37
19890;BME280;10107;51.198;6.824;2023-04-06T10:49:37;-21824.59;;;19.47;29.24
19890;BME280;10107;51.198;6.824;2023-04-06T10:53:41;-21841.03;;;20.12;27.58
19890;BME280;10107;51.198;6.824;2023-04-06T10:57:46;-21849.25;;;20.44;26.95
19890;BME280;10107;51.198;6.824;2023-04-06T11:01:47;-21850.16;;;20.48;27.36
19890;BME280;10107;51.198;6.824;2023-04-06T11:05:50;-21850.16;;;20.48;27.17
19890;BME280;10107;51.198;6.824;2023-04-06T11:09:54;-21852.38;;;20.56;27.28
19890;BME280;10107;51.198;6.824;2023-04-06T11:13:56;-21820.41;;;19.31;29.11
19890;BME280;10107;51.198;6.824;2023-04-06T11:18:03;-21813.91;;;19.05;30.32
19890;BME280;10107;51.198;6.824;2023-04-06T11:22:06;-21794.03;;;18.27;30.77
19890;BME280;10107;51.198;6.824;2023-04-06T11:26:11;-21777.81;;;17.64;32.46
19890;BME280;10107;51.198;6.824;2023-04-06T11:30:14;-21762.75;;;17.05;32.99
19890;BME280;10107;51.198;6.824;2023-04-06T11:34:17;-21754.47;;;16.72;33.83
19890;BME280;10107;51.198;6.824;2023-04-06T11:38:19;-21748.06;;;16.47;34.61
19890;BME280;10107;51.198;6.824;2023-04-06T11:42:24;-21739.25;;;16.13;34.67
19890;BME280;10107;51.198;6.824;2023-04-06T11:46:26;-21745.28;;;16.36;36.12
19890;BME280;10107;51.198;6.824;2023-04-06T11:50:31;-21750.16;;;16.55;36.08
19890;BME280;10107;51.198;6.824;2023-04-06T11:54:35;-21751.84;;;16.62;35.80
19890;BME280;10107;51.198;6.824;2023-04-06T11:58:38;-21763.00;;;17.06;34.74
19890;BME280;10107;51.198;6.824;2023-04-06T12:02:45;-21770.34;;;17.34;35.04
19890;BME280;10107;51.198;6.824;2023-04-06T12:06:47;-21782.25;;;17.81;35.67
19890;BME280;10107;51.198;6.824;2023-04-06T12:10:49;-21791.81;;;18.18;34.02
19890;BME280;10107;51.198;6.824;2023-04-06T12:14:52;-21799.25;;;18.48;34.45
19890;BME280;10107;51.198;6.824;2023-04-06T12:18:54;-21781.72;;;17.79;34.81
19890;BME280;10107;51.198;6.824;2023-04-06T12:22:56;-21770.72;;;17.36;34.98
19890;BME280;10107;51.198;6.824;2023-04-06T12:26:58;-21759.97;;;16.94;36.21
19890;BME280;10107;51.198;6.824;2023-04-06T12:31:01;-21748.31;;;16.48;36.46
19890;BME280;10107;51.198;6.824;2023-04-06T12:35:03;-21742.00;;;16.23;36.95
19890;BME280;10107;51.198;6.824;2023-04-06T12:39:05;-21742.81;;;16.27;37.02
19890;BME280;10107;51.198;6.824;2023-04-06T12:43:07;-21738.88;;;16.11;38.05
19890;BME280;10107;51.198;6.824;2023-04-06T12:47:10;-21740.44;;;16.17;38.26
19890;BME280;10107;51.198;6.824;2023-04-06T12:51:12;-21746.47;;;16.41;36.99
19890;BME280;10107;51.198;6.824;2023-04-06T12:55:15;-21745.81;;;16.38;36.79
19890;BME280;10107;51.198;6.824;2023-04-06T12:59:16;-21743.72;;;16.30;37.38
19890;BME280;10107;51.198;6.824;2023-04-06T13:03:20;-21737.16;;;16.04;37.69
19890;BME280;10107;51.198;6.824;2023-04-06T13:07:22;-21735.06;;;15.96;38.22
19890;BME280;10107;51.198;6.824;2023-04-06T13:11:25;-21730.06;;;15.77;38.42
19890;BME280;10107;51.198;6.824;2023-04-06T13:15:27;-21733.75;;;15.91;38.97
19890;BME280;10107;51.198;6.824;2023-04-06T13:19:30;-21737.81;;;16.07;38.98
19890;BME280;10107;51.198;6.824;2023-04-06T13:23:33;-21732.03;;;15.84;40.57
19890;BME280;10107;51.198;6.824;2023-04-06T13:27:35;-21729.53;;;15.75;41.80
19890;BME280;10107;51.198;6.824;2023-04-06T13:31:36;-21719.03;;;15.34;43.45
19890;BME280;10107;51.198;6.824;2023-04-06T13:35:44;-21717.19;;;15.27;43.69
19890;BME280;10107;51.198;6.824;2023-04-06T13:39:45;-21708.38;;;14.92;44.84
19890;BME280;10107;51.198;6.824;2023-04-06T13:43:48;-21705.47;;;14.81;45.01
19890;BME280;10107;51.198;6.824;2023-04-06T13:47:50;-21694.03;;;14.36;45.79
19890;BME280;10107;51.198;6.824;2023-04-06T13:51:53;-21695.09;;;14.40;46.80
19890;BME280;10107;51.198;6.824;2023-04-06T13:55:55;-21694.81;;;14.39;48.07
19890;BME280;10107;51.198;6.824;2023-04-06T13:59:57;-21687.31;;;14.10;50.13
19890;BME280;10107;51.198;6.824;2023-04-06T14:03:58;-21683.22;;;13.94;50.03
19890;BME280;10107;51.198;6.824;2023-04-06T14:08:01;-21671.63;;;13.49;49.92
19890;BME280;10107;51.198;6.824;2023-04-06T14:12:04;-21663.47;;;13.17;50.91
19890;BME280;10107;51.198;6.824;2023-04-06T14:16:06;-21666.34;;;13.28;52.92
19890;BME280;10107;51.198;6.824;2023-04-06T14:20:08;-21671.50;;;13.49;52.45
19890;BME280;10107;51.198;6.824;2023-04-06T14:24:15;-21669.25;;;13.40;51.30
19890;BME280;10107;51.198;6.824;2023-04-06T14:28:17;-21660.41;;;13.05;53.52
19890;BME280;10107;51.198;6.824;2023-04-06T14:32:19;-21649.59;;;12.63;56.12
19890;BME280;10107;51.198;6.824;2023-04-06T14:36:21;-21639.69;;;12.25;58.03
19890;BME280;10107;51.198;6.824;2023-04-06T14:40:24;-21629.91;;;11.87;62.58
19890;BME280;10107;51.198;6.824;2023-04-06T14:44:26;-21622.25;;;11.57;63.93
19890;BME280;10107;51.198;6.824;2023-04-06T14:48:28;-21618.00;;;11.41;66.64
19890;BME280;10107;51.198;6.824;2023-04-06T14:52:29;-21617.22;;;11.38;69.05
19890;BME280;10107;51.198;6.824;2023-04-06T14:56:32;-21610.34;;;11.11;74.88
19890;BME280;10107;51.198;6.824;2023-04-06T15:00:34;-21602.00;;;10.79;79.29
19890;BME280;10107;51.198;6.824;2023-04-06T15:04:36;-21595.50;;;10.54;82.76
19890;BME280;10107;51.198;6.824;2023-04-06T15:08:37;-21588.47;;;10.26;83.45
19890;BME280;10107;51.198;6.824;2023-04-06T15:12:40;-21585.16;;;10.14;84.67
19890;BME280;10107;51.198;6.824;2023-04-06T15:16:42;-21587.69;;;10.23;89.86
19890;BME280;10107;51.198;6.824;2023-04-06T15:20:43;-21588.75;;;10.27;91.25
19890;BME280;10107;51.198;6.824;2023-04-06T15:24:45;-21586.75;;;10.20;90.42
19890;BME280;10107;51.198;6.824;2023-04-06T15:28:48;-21580.53;;;9.96;95.15
19890;BME280;10107;51.198;6.824;2023-04-06T15:32:52;-21576.94;;;9.82;95.26
19890;BME280;10107;51.198;6.824;2023-04-06T15:36:54;-21576.81;;;9.81;100.00
19890;BME280;10107;51.198;6.824;2023-04-06T15:40:59;-21576.16;;;9.79;100.00
19890;BME280;10107;51.198;6.824;2023-04-06T15:45:02;-21574.56;;;9.73;100.00
19890;BME280;10107;51.198;6.824;2023-04-06T15:49:03;-21570.72;;;9.58;100.00
19890;BME280;10107;51.198;6.824;2023-04-06T15:53:05;-21568.47;;;9.49;100.00
19890;BME280;10107;51.198;6.824;2023-04-06T15:57:07;-21565.66;;;9.38;100.00
19890;BME280;10107;51.198;6.824;2023-04-06T16:01:14;-21563.94;;;9.31;100.00
19890;BME280;10107;51.198;6.824;2023-04-06T16:05:16;-21560.50;;;9.18;100.00
19890;BME280;10107;51.198;6.824;2023-04-06T16:09:18;-21557.56;;;9.07;100.00
19890;BME280;10107;51.198;6.824;2023-04-06T16:13:19;-21551.19;;;8.82;100.00
19890;BME280;10107;51.198;6.824;2023-04-06T16:17:22;-21549.47;;;8.76;100.00
19890;BME280;10107;51.198;6.824;2023-04-06T16:21:24;-21547.88;;;8.69;100.00
19890;BME280;10107;51.198;6.824;2023-04-06T16:25:28;-21547.09;;;8.66;100.00
19890;BME280;10107;51.198;6.824;2023-04-06T16:29:30;-21544.69;;;8.57;100.00
19890;BME280;10107;51.198;6.824;2023-04-06T16:33:33;-21540.44;;;8.41;100.00
19890;BME280;10107;51.198;6.824;2023-04-06T16:37:34;-21540.84;;;8.42;100.00
19890;BME280;10107;51.198;6.824;2023-04-06T16:41:37;-21537.38;;;8.29;100.00
19890;BME280;10107;51.198;6.824;2023-04-06T16:45:39;-21537.25;;;8.28;100.00
19890;BME280;10107;51.198;6.824;2023-04-06T16:49:42;-21534.84;;;8.19;100.00
19890;BME280;10107;51.198;6.824;2023-04-06T16:53:44;-21533.53;;;8.14;100.00
19890;BME280;10107;51.198;6.824;2023-04-06T16:57:47;-21532.47;;;8.10;100.00
19890;BME280;10107;51.198;6.824;2023-04-06T17:01:49;-21531.00;;;8.04;100.00
19890;BME280;10107;51.198;6.824;2023-04-06T17:05:52;-21529.81;;;8.00;100.00
19890;BME280;10107;51.198;6.824;2023-04-06T17:09:53;-21529.53;;;7.99;100.00
19890;BME280;10107;51.198;6.824;2023-04-06T17:13:55;-21529.94;;;8.00;100.00
19890;BME280;10107;51.198;6.824;2023-04-06T17:17:57;-21527.00;;;7.89;100.00
19890;BME280;10107;51.198;6.824;2023-04-06T17:22:00;-21526.75;;;7.88;100.00
19890;BME280;10107;51.198;6.824;2023-04-06T17:26:02;-21525.69;;;7.84;100.00
19890;BME280;10107;51.198;6.824;2023-04-06T17:30:05;-21526.22;;;7.86;100.00
19890;BME280;10107;51.198;6.824;2023-04-06T17:34:09;-21523.94;;;7.77;100.00
19890;BME280;10107;51.198;6.824;2023-04-06T17:38:12;-21523.41;;;7.75;100.00
19890;BME280;10107;51.198;6.824;2023-04-06T17:42:13;-21522.75;;;7.72;100.00
19890;BME280;10107;51.198;6.824;2023-04-06T17:46:15;-21521.81;;;7.69;100.00
19890;BME280;10107;51.198;6.824;2023-04-06T17:50:17;-21521.69;;;7.68;100.00
19890;BME280;10107;51.198;6.824;2023-04-06T17:54:20;-21520.88;;;7.65;100.00
19890;BME280;10107;51.198;6.824;2023-04-06T17:58:22;-21520.88;;;7.65;100.00
19890;BME280;10107;51.198;6.824;2023-04-06T18:02:23;-21519.28;;;7.59;100.00
19890;BME280;10107;51.198;6.824;2023-04-06T18:06:25;-21517.56;;;7.52;100.00
19890;BME280;10107;51.198;6.824;2023-04-06T18:10:28;-21515.31;;;7.44;100.00
19890;BME280;10107;51.198;6.824;2023-04-06T18:14:30;-21516.09;;;7.47;100.00
19890;BME280;10107;51.198;6.824;2023-04-06T18:18:32;-21515.44;;;7.44;100.00
19890;BME280;10107;51.198;6.824;2023-04-06T18:22:34;-21515.44;;;7.44;100.00
19890;BME280;10107;51.198;6.824;2023-04-06T18:26:38;-21514.63;;;7.41;100.00
19890;BME280;10107;51.198;6.824;2023-04-06T18:30:40;-21514.22;;;7.40;100.00
19890;BME280;10107;51.198;6.824;2023-04-06T18:34:41;-21513.69;;;7.38;100.00
19890;BME280;10107;51.198;6.824;2023-04-06T18:38:46;-21512.78;;;7.34;100.00
19890;BME280;10107;51.198;6.824;2023-04-06T18:42:49;-21511.44;;;7.29;100.00
19890;BME280;10107;51.198;6.824;2023-04-06T18:46:51;-21509.84;;;7.23;100.00
19890;BME280;10107;51.198;6.824;2023-04-06T18:50:52;-21509.56;;;7.22;100.00
19890;BME280;10107;51.198;6.824;2023-04-06T18:54:54;-21508.25;;;7.17;100.00
19890;BME280;10107;51.198;6.824;2023-04-06T18:58:57;-21506.66;;;7.10;100.00
19890;BME280;10107;51.198;6.824;2023-04-06T19:02:59;-21504.50;;;7.02;100.00
19890;BME280;10107;51.198;6.824;2023-04-06T19:07:01;-21503.31;;;6.98;100.00
19890;BME280;10107;51.198;6.824;2023-04-06T19:11:06;-21503.72;;;6.99;100.00
19890;BME280;10107;51.198;6.824;2023-04-06T19:15:10;-21504.25;;;7.01;100.00
19890;BME280;10107;51.198;6.824;2023-04-06T19:19:12;-21504.25;;;7.01;100.00
19890;BME280;10107;51.198;6.824;2023-04-06T19:23:14;-21504.13;;;7.01;100.00
19890;BME280;10107;51.198;6.824;2023-04-06T19:27:16;-21504.25;;;7.01;100.00
19890;BME280;10107;51.198;6.824;2023-04-06T19:31:19;-21504.38;;;7.02;100.00
19890;BME280;10107;51.198;6.824;2023-04-06T19:35:21;-21505.31;;;7.05;100.00
19890;BME280;10107;51.198;6.824;2023-04-06T19:39:23;-21505.59;;;7.06;100.00
19890;BME280;10107;51.198;6.824;2023-04-06T19:43:26;-21503.31;;;6.98;100.00
19890;BME280;10107;51.198;6.824;2023-04-06T19:47:29;-21502.00;;;6.92;100.00
19890;BME280;10107;51.198;6.824;2023-04-06T19:51:31;-21502.25;;;6.93;100.00
19890;BME280;10107;51.198;6.824;2023-04-06T19:55:34;-21503.19;;;6.97;100.00
19890;BME280;10107;51.198;6.824;2023-04-06T19:59:35;-21502.66;;;6.95;100.00
19890;BME280;10107;51.198;6.824;2023-04-06T20:03:38;-21503.19;;;6.97;100.00
19890;BME280;10107;51.198;6.824;2023-04-06T20:07:40;-21502.00;;;6.92;100.00
19890;BME280;10107;51.198;6.824;2023-04-06T20:11:42;-21501.31;;;6.90;100.00
19890;BME280;10107;51.198;6.824;2023-04-06T20:15:44;-21500.91;;;6.88;100.00
19890;BME280;10107;51.198;6.824;2023-04-06T20:19:48;-21500.91;;;6.88;100.00
19890;BME280;10107;51.198;6.824;2023-04-06T20:23:51;-21501.31;;;6.90;100.00
19890;BME280;10107;51.198;6.824;2023-04-06T20:27:53;-21499.59;;;6.83;100.00
19890;BME280;10107;51.198;6.824;2023-04-06T20:31:55;-21498.25;;;6.78;100.00
19890;BME280;10107;51.198;6.824;2023-04-06T20:35:59;-21500.38;;;6.86;100.00
19890;BME280;10107;51.198;6.824;2023-04-06T20:40:01;-21500.38;;;6.86;100.00
19890;BME280;10107;51.198;6.824;2023-04-06T20:44:03;-21500.91;;;6.88;100.00
19890;BME280;10107;51.198;6.824;2023-04-06T20:48:05;-21501.72;;;6.91;100.00
19890;BME280;10107;51.198;6.824;2023-04-06T20:52:08;-21501.72;;;6.91;100.00
19890;BME280;10107;51.198;6.824;2023-04-06T20:56:10;-21501.84;;;6.92;100.00
19890;BME280;10107;51.198;6.824;2023-04-06T21:00:12;-21503.06;;;6.97;100.00
19890;BME280;10107;51.198;6.824;2023-04-06T21:04:15;-21503.31;;;6.98;100.00
19890;BME280;10107;51.198;6.824;2023-04-06T21:08:18;-21503.72;;;6.99;100.00
19890;BME280;10107;51.198;6.824;2023-04-06T21:12:20;-21503.44;;;6.98;100.00
19890;BME280;10107;51.198;6.824;2023-04-06T21:16:22;-21503.44;;;6.98;100.00